Time;durP1;ratioP1;P1;durP2;ratioP2;P2;SDS_P1;SDS_P2;PMS_P1;PMS_P2;Temp;Humidity;BMP_temperature;BMP_pressure;BME280_temperature;BME280_humidity;BME280_pressure;Samples;Min_cycle;Max_cycle;Signal;HPM_P1;HPM_P2
2021/06/05 00:01:31;;;;;;;1.60;1.23;;;19.80;98.00;;;;;;5071535;28;20577;-75
2021/06/05 00:04:01;;;;;;;1.60;1.40;;;19.90;98.00;;;;;;5071242;28;20939;-75
2021/06/05 00:06:29;;;;;;;1.60;1.50;;;20.00;98.00;;;;;;5071185;28;20491;-76
2021/06/05 00:08:55;;;;;;;1.30;1.13;;;19.90;98.00;;;;;;5070289;28;20504;-75
2021/06/05 00:11:24;;;;;;;2.23;1.30;;;19.80;98.00;;;;;;5071530;28;20477;-75
2021/06/05 00:13:55;;;;;;;4.13;1.77;;;19.70;98.00;;;;;;5067404;28;20503;-76
2021/06/05 00:16:25;;;;;;;1.20;1.20;;;19.60;98.00;;;;;;5071622;28;20460;-75
2021/06/05 00:18:52;;;;;;;1.40;1.30;;;19.60;98.00;;;;;;5069047;28;20460;-75
2021/06/05 00:21:22;;;;;;;1.40;1.20;;;19.60;98.00;;;;;;5071653;28;20461;-75
2021/06/05 00:23:49;;;;;;;2.33;1.63;;;19.60;98.00;;;;;;5068898;28;20491;-75
2021/06/05 00:26:16;;;;;;;2.07;1.37;;;19.60;98.00;;;;;;5071965;28;20456;-75
2021/06/05 00:28:45;;;;;;;1.67;1.27;;;19.70;98.00;;;;;;5068554;28;20455;-75
2021/06/05 00:31:11;;;;;;;1.37;1.30;;;19.80;98.00;;;;;;5071620;28;20455;-75
2021/06/05 00:33:38;;;;;;;1.57;1.43;;;19.80;98.00;;;;;;5068686;28;20901;-75
2021/06/05 00:36:07;;;;;;;1.67;1.30;;;19.80;98.00;;;;;;5071337;28;20491;-75
2021/06/05 00:38:36;;;;;;;1.93;1.30;;;19.90;98.00;;;;;;5068423;28;20792;-75
2021/06/05 00:41:03;;;;;;;1.37;1.10;;;20.00;98.00;;;;;;5071495;28;20464;-75
2021/06/05 00:43:35;;;;;;;1.60;1.43;;;20.00;98.00;;;;;;5068829;28;21061;-74
2021/06/05 00:46:02;;;;;;;2.00;1.30;;;19.80;98.00;;;;;;5071335;28;20463;-75
2021/06/05 00:48:28;;;;;;;1.70;1.23;;;19.60;98.00;;;;;;5068358;28;20970;-75
2021/06/05 00:50:55;;;;;;;1.43;1.33;;;19.40;98.00;;;;;;5069727;28;20610;-76
2021/06/05 00:53:25;;;;;;;4.23;1.40;;;19.30;98.00;;;;;;5068624;28;20456;-74
2021/06/05 00:55:55;;;;;;;1.30;1.27;;;19.10;98.00;;;;;;5071094;28;20707;-75
2021/06/05 00:58:23;;;;;;;1.20;1.10;;;19.10;98.00;;;;;;5068237;28;20783;-75
2021/06/05 01:00:53;;;;;;;1.30;1.20;;;19.10;98.00;;;;;;5071078;28;20453;-76
2021/06/05 01:03:21;;;;;;;1.63;1.10;;;19.00;98.00;;;;;;5071270;28;20514;-75
2021/06/05 01:05:52;;;;;;;1.30;1.30;;;19.10;98.00;;;;;;5075261;28;21175;-75
2021/06/05 01:08:24;;;;;;;1.30;1.20;;;19.20;98.00;;;;;;5072509;28;20975;-75
2021/06/05 01:11:01;;;;;;;1.30;1.30;;;19.10;98.00;;;;;;5075585;28;20511;-77
2021/06/05 01:13:35;;;;;;;1.43;1.10;;;19.10;98.00;;;;;;5072658;28;20456;-75
2021/06/05 01:16:06;;;;;;;1.20;1.10;;;19.20;98.00;;;;;;5074209;28;20456;-75
2021/06/05 01:18:37;;;;;;;2.60;1.20;;;19.30;98.00;;;;;;5072575;28;20467;-75
2021/06/05 01:21:29;;;;;;;1.40;1.20;;;19.30;98.00;;;;;;5075144;28;20781;-76
2021/06/05 01:24:08;;;;;;;1.30;1.03;;;19.30;98.00;;;;;;5072062;28;20873;-75
2021/06/05 01:26:41;;;;;;;1.20;1.10;;;19.30;98.00;;;;;;5074972;28;20491;-76
2021/06/05 01:29:16;;;;;;;1.20;1.10;;;19.10;98.00;;;;;;5074642;28;20453;-75
2021/06/05 01:31:46;;;;;;;4.60;1.23;;;19.10;98.00;;;;;;5072103;28;20852;-75
2021/06/05 01:34:13;;;;;;;1.30;1.10;;;18.90;98.00;;;;;;5074819;28;20534;-75
2021/06/05 01:36:44;;;;;;;1.30;1.20;;;19.00;98.00;;;;;;5072582;28;20480;-76
2021/06/05 01:39:13;;;;;;;1.20;1.10;;;19.00;98.00;;;;;;5073538;28;20794;-76
2021/06/05 01:41:45;;;;;;;2.13;1.40;;;19.10;98.00;;;;;;5073030;28;20460;-76
2021/06/05 01:44:13;;;;;;;2.13;1.20;;;19.00;98.00;;;;;;5073452;28;20449;-76
2021/06/05 01:46:42;;;;;;;1.57;1.23;;;18.70;98.00;;;;;;5072990;28;20514;-75
2021/06/05 01:49:09;;;;;;;2.17;1.50;;;18.80;98.00;;;;;;5074273;28;20499;-76
2021/06/05 01:51:38;;;;;;;1.20;1.00;;;18.80;98.00;;;;;;5074522;28;20976;-75
2021/06/05 01:54:08;;;;;;;1.20;1.10;;;18.60;98.00;;;;;;5073378;28;20464;-75
2021/06/05 01:56:39;;;;;;;1.30;1.30;;;18.50;98.00;;;;;;5074680;28;20810;-76
2021/06/05 01:59:10;;;;;;;1.30;1.20;;;18.30;98.00;;;;;;5073945;28;20456;-75
2021/06/05 02:01:37;;;;;;;1.20;1.00;;;18.10;98.00;;;;;;5073389;28;20453;-75
2021/06/05 02:04:03;;;;;;;1.20;1.10;;;17.90;98.00;;;;;;5071606;28;20808;-75
2021/06/05 02:06:34;;;;;;;1.30;1.20;;;18.00;98.00;;;;;;5074398;28;20563;-75
2021/06/05 02:09:02;;;;;;;1.40;1.20;;;17.90;98.00;;;;;;5069762;28;20449;-75
2021/06/05 02:11:31;;;;;;;1.57;1.20;;;18.10;98.00;;;;;;5074278;28;20449;-75
2021/06/05 02:14:02;;;;;;;1.20;1.20;;;18.00;98.00;;;;;;5070997;28;21020;-75
2021/06/05 02:16:35;;;;;;;1.30;1.17;;;17.90;98.00;;;;;;5074094;28;20489;-75
2021/06/05 02:19:06;;;;;;;1.87;1.47;;;17.80;98.00;;;;;;5071639;28;20457;-75
2021/06/05 02:21:35;;;;;;;2.60;1.60;;;17.80;98.00;;;;;;5073794;28;20548;-75
2021/06/05 02:24:06;;;;;;;1.50;1.20;;;17.60;98.00;;;;;;5070764;28;20470;-76
2021/06/05 02:26:35;;;;;;;1.57;1.17;;;17.70;98.00;;;;;;5073829;28;20456;-75
2021/06/05 02:29:05;;;;;;;1.40;1.30;;;17.60;98.00;;;;;;5070955;28;20551;-76
2021/06/05 02:31:34;;;;;;;1.30;1.20;;;17.50;98.00;;;;;;5073674;28;20481;-75
2021/06/05 02:34:03;;;;;;;1.30;1.20;;;17.40;98.00;;;;;;5070866;28;20487;-74
2021/06/05 02:36:29;;;;;;;1.30;1.30;;;17.50;98.00;;;;;;5073578;28;20452;-75
2021/06/05 02:38:56;;;;;;;1.20;1.00;;;17.60;98.00;;;;;;5070760;28;20497;-76
2021/06/05 02:41:24;;;;;;;1.20;1.07;;;17.50;98.00;;;;;;5073727;28;20473;-75
2021/06/05 02:43:53;;;;;;;1.40;1.30;;;17.50;98.00;;;;;;5070854;28;20795;-76
2021/06/05 02:46:23;;;;;;;2.20;1.43;;;17.50;98.00;;;;;;5073599;28;20495;-75
2021/06/05 02:48:55;;;;;;;1.50;1.10;;;17.40;98.00;;;;;;5070560;28;20490;-74
2021/06/05 02:51:24;;;;;;;1.23;1.13;;;17.30;98.00;;;;;;5073443;28;20480;-75
2021/06/05 02:53:51;;;;;;;1.30;1.20;;;17.20;98.00;;;;;;5070769;28;20459;-75
2021/06/05 02:56:18;;;;;;;1.20;1.10;;;17.20;98.00;;;;;;5073289;28;20457;-75
2021/06/05 02:58:45;;;;;;;1.20;1.00;;;17.10;98.00;;;;;;5070459;28;20938;-75
2021/06/05 03:01:12;;;;;;;1.40;1.20;;;17.00;98.00;;;;;;5073171;28;20973;-76
2021/06/05 03:03:39;;;;;;;1.40;1.30;;;16.90;98.00;;;;;;5069979;28;20503;-75
2021/06/05 03:06:08;;;;;;;1.20;1.10;;;16.90;98.00;;;;;;5073128;28;20463;-75
2021/06/05 03:08:39;;;;;;;1.40;1.27;;;16.90;98.00;;;;;;5069827;28;20453;-75
2021/06/05 03:11:09;;;;;;;1.20;1.10;;;16.80;98.00;;;;;;5071691;28;20488;-75
2021/06/05 03:13:35;;;;;;;2.27;1.20;;;16.80;98.00;;;;;;5069638;28;20483;-75
2021/06/05 03:16:02;;;;;;;1.53;1.43;;;16.90;98.00;;;;;;5072970;28;20536;-75
2021/06/05 03:18:29;;;;;;;1.20;1.10;;;16.80;98.00;;;;;;5070067;28;20970;-75
2021/06/05 03:20:57;;;;;;;1.20;1.10;;;16.90;98.00;;;;;;5072869;28;20891;-75
2021/06/05 03:23:29;;;;;;;1.20;1.10;;;17.00;98.00;;;;;;5069582;28;20951;-76
2021/06/05 03:25:57;;;;;;;1.20;1.10;;;17.10;98.00;;;;;;5072431;28;20459;-76
2021/06/05 03:28:30;;;;;;;1.30;1.10;;;17.10;98.00;;;;;;5068748;28;20485;-74
2021/06/05 03:30:57;;;;;;;1.60;1.10;;;17.20;98.00;;;;;;5072708;28;20477;-75
2021/06/05 03:33:24;;;;;;;1.50;1.30;;;17.30;98.00;;;;;;5068325;28;20460;-75
2021/06/05 03:35:52;;;;;;;1.20;1.00;;;17.00;98.00;;;;;;5072530;28;20468;-75
2021/06/05 03:38:21;;;;;;;1.40;1.30;;;17.00;98.00;;;;;;5069780;28;20859;-75
2021/06/05 03:40:49;;;;;;;1.20;1.00;;;16.90;98.00;;;;;;5072405;28;20481;-75
2021/06/05 03:43:16;;;;;;;1.70;1.43;;;17.00;98.00;;;;;;5069301;28;20481;-75
2021/06/05 03:45:42;;;;;;;1.20;1.00;;;17.00;98.00;;;;;;5071089;28;20461;-75
2021/06/05 03:48:09;;;;;;;1.50;1.40;;;17.10;98.00;;;;;;5069104;28;20995;-75
2021/06/05 03:50:39;;;;;;;1.20;1.00;;;17.30;98.00;;;;;;5071987;28;20516;-75
2021/06/05 03:53:06;;;;;;;1.20;1.07;;;17.40;98.00;;;;;;5069154;28;20504;-76
2021/06/05 03:55:33;;;;;;;1.20;1.10;;;17.40;98.00;;;;;;5072075;28;20456;-75
2021/06/05 03:58:02;;;;;;;1.20;1.10;;;17.30;98.00;;;;;;5069307;28;20488;-76
2021/06/05 04:00:32;;;;;;;1.20;1.10;;;17.30;98.00;;;;;;5071907;28;20475;-76
2021/06/05 04:02:59;;;;;;;1.40;1.13;;;17.30;98.00;;;;;;5069239;28;20461;-75
2021/06/05 04:05:27;;;;;;;1.20;1.10;;;17.20;98.00;;;;;;5054236;28;20842;-75
2021/06/05 04:07:54;;;;;;;1.20;1.00;;;17.10;98.00;;;;;;5068921;28;20457;-75
2021/06/05 04:10:22;;;;;;;1.20;1.10;;;17.10;98.00;;;;;;5071991;28;20524;-76
2021/06/05 04:12:50;;;;;;;1.30;1.20;;;17.30;98.00;;;;;;5069366;28;20499;-76
2021/06/05 04:15:20;;;;;;;1.30;1.10;;;17.40;98.00;;;;;;5071680;28;20962;-75
2021/06/05 04:17:47;;;;;;;1.50;1.10;;;17.40;98.00;;;;;;5068856;28;20506;-75
2021/06/05 04:20:17;;;;;;;2.00;1.30;;;17.50;98.00;;;;;;5071596;28;20456;-75
2021/06/05 04:22:53;;;;;;;1.53;1.23;;;17.70;98.00;;;;;;5068913;28;20485;-75
2021/06/05 04:25:20;;;;;;;1.20;1.03;;;17.70;98.00;;;;;;5071734;28;21203;-75
2021/06/05 04:27:47;;;;;;;1.20;1.10;;;17.70;98.00;;;;;;5068785;28;20452;-74
2021/06/05 04:30:16;;;;;;;1.50;1.20;;;17.80;98.00;;;;;;5071494;28;20484;-75
2021/06/05 04:32:44;;;;;;;1.27;1.27;;;17.80;98.00;;;;;;5068852;28;20458;-75
2021/06/05 04:35:12;;;;;;;1.30;1.30;;;17.90;98.00;;;;;;5071420;28;20969;-75
2021/06/05 04:37:39;;;;;;;1.27;1.23;;;17.90;98.00;;;;;;5066380;28;20479;-75
2021/06/05 04:40:07;;;;;;;1.20;1.10;;;18.00;98.00;;;;;;5071561;28;20515;-76
2021/06/05 04:42:34;;;;;;;1.20;1.20;;;18.10;98.00;;;;;;5068620;28;20503;-76
2021/06/05 04:45:00;;;;;;;1.40;1.23;;;18.40;98.00;;;;;;5071553;28;20523;-75
2021/06/05 04:47:27;;;;;;;1.20;1.20;;;18.50;98.00;;;;;;5068802;28;20453;-75
2021/06/05 04:49:55;;;;;;;1.63;1.60;;;18.60;98.00;;;;;;5071029;28;20578;-75
2021/06/05 04:52:22;;;;;;;1.20;1.13;;;18.70;98.00;;;;;;5068448;28;20460;-76
2021/06/05 04:54:48;;;;;;;1.20;1.10;;;18.70;98.00;;;;;;5071515;28;20456;-76
2021/06/05 04:57:15;;;;;;;1.20;1.10;;;18.80;98.00;;;;;;5068739;28;20456;-75
2021/06/05 04:59:41;;;;;;;1.97;1.20;;;18.90;98.00;;;;;;5071359;28;20453;-75
2021/06/05 05:02:08;;;;;;;1.20;1.10;;;19.10;98.00;;;;;;5068219;28;20492;-75
2021/06/05 05:04:35;;;;;;;1.20;1.10;;;19.00;98.00;;;;;;5069976;28;20534;-76
2021/06/05 05:07:03;;;;;;;1.20;1.00;;;18.90;98.00;;;;;;5068773;28;20460;-76
2021/06/05 05:09:30;;;;;;;1.30;1.23;;;18.80;98.00;;;;;;5071276;28;20453;-76
2021/06/05 05:11:57;;;;;;;1.53;1.40;;;19.00;98.00;;;;;;5070035;28;20502;-76
2021/06/05 05:14:24;;;;;;;1.20;1.07;;;19.10;98.00;;;;;;5068853;28;20532;-76
2021/06/05 05:16:50;;;;;;;1.80;1.43;;;19.00;98.00;;;;;;5070993;28;20948;-75
2021/06/05 05:19:17;;;;;;;1.50;1.30;;;19.00;98.00;;;;;;5068682;28;20978;-76
2021/06/05 05:21:43;;;;;;;1.20;1.20;;;19.00;98.00;;;;;;5069687;28;20487;-75
2021/06/05 05:24:11;;;;;;;1.30;1.10;;;19.00;98.00;;;;;;5068155;28;20547;-75
2021/06/05 05:26:38;;;;;;;1.43;1.20;;;19.00;98.00;;;;;;5071113;28;20591;-76
2021/06/05 05:29:06;;;;;;;1.50;1.30;;;19.00;98.00;;;;;;5067377;28;20813;-76
2021/06/05 05:31:33;;;;;;;1.20;1.13;;;18.90;98.00;;;;;;5070839;28;20515;-75
2021/06/05 05:34:00;;;;;;;1.20;1.10;;;18.90;98.00;;;;;;5068315;28;20449;-76
2021/06/05 05:36:29;;;;;;;1.30;1.20;;;19.00;98.00;;;;;;5071194;28;20869;-76
2021/06/05 05:38:56;;;;;;;1.20;1.10;;;19.10;98.00;;;;;;5068434;28;20488;-77
2021/06/05 05:41:25;;;;;;;1.20;1.10;;;19.20;98.00;;;;;;5071076;28;20456;-76
2021/06/05 05:43:53;;;;;;;1.40;1.00;;;19.30;98.00;;;;;;5068235;28;20507;-76
2021/06/05 05:46:21;;;;;;;1.37;1.37;;;19.40;98.00;;;;;;5070826;28;20489;-75
2021/06/05 05:48:48;;;;;;;1.30;1.20;;;19.60;98.00;;;;;;5069444;28;21050;-76
2021/06/05 05:51:17;;;;;;;1.20;1.10;;;19.70;98.00;;;;;;5074514;28;20588;-76
2021/06/05 05:53:44;;;;;;;1.20;1.10;;;19.90;98.00;;;;;;5071920;28;20831;-76
2021/06/05 05:56:13;;;;;;;1.70;1.40;;;20.00;98.00;;;;;;5074373;28;20453;-76
2021/06/05 05:58:44;;;;;;;1.20;1.10;;;20.00;98.00;;;;;;5070377;28;20526;-76
2021/06/05 06:01:12;;;;;;;1.20;1.10;;;19.90;98.00;;;;;;5074146;28;20471;-76
2021/06/05 06:03:39;;;;;;;1.20;1.00;;;20.00;98.00;;;;;;5071679;28;20456;-76
2021/06/05 06:06:07;;;;;;;1.67;1.27;;;19.90;98.00;;;;;;5073151;28;20491;-77
2021/06/05 06:08:34;;;;;;;1.40;1.20;;;19.90;98.00;;;;;;5071391;28;20453;-77
2021/06/05 06:11:01;;;;;;;1.40;1.20;;;20.00;98.00;;;;;;5074458;28;20535;-77
2021/06/05 06:13:27;;;;;;;1.97;1.20;;;20.10;98.00;;;;;;5071753;28;20449;-76
2021/06/05 06:15:55;;;;;;;1.30;1.17;;;20.20;98.00;;;;;;5074327;28;20931;-77
2021/06/05 06:18:22;;;;;;;1.20;1.17;;;20.10;98.00;;;;;;5071275;28;20453;-76
2021/06/05 06:20:51;;;;;;;1.20;1.20;;;20.20;98.00;;;;;;5074186;28;20507;-77
2021/06/05 06:23:22;;;;;;;1.20;1.17;;;20.30;98.00;;;;;;5071339;28;20461;-77
2021/06/05 06:25:50;;;;;;;1.30;1.10;;;20.20;98.00;;;;;;5074043;28;20499;-77
2021/06/05 06:28:20;;;;;;;2.80;1.47;;;20.20;98.00;;;;;;5071270;28;20444;-78
2021/06/05 06:30:48;;;;;;;2.20;1.20;;;20.20;98.00;;;;;;5073727;28;20908;-78
2021/06/05 06:33:17;;;;;;;1.73;1.50;;;20.30;98.00;;;;;;5071354;28;20562;-77
2021/06/05 06:35:47;;;;;;;1.40;1.13;;;20.30;98.00;;;;;;5074057;28;20962;-77
2021/06/05 06:38:17;;;;;;;1.40;1.03;;;20.40;98.00;;;;;;5070927;28;20468;-77
2021/06/05 06:40:44;;;;;;;1.20;1.10;;;20.50;98.00;;;;;;5073806;28;20452;-76
2021/06/05 06:43:15;;;;;;;1.30;1.13;;;20.40;98.00;;;;;;5070307;28;20488;-78
2021/06/05 06:45:45;;;;;;;1.20;1.10;;;20.40;98.00;;;;;;5073387;28;20453;-76
2021/06/05 06:48:12;;;;;;;1.20;1.13;;;20.40;98.00;;;;;;5069522;28;20461;-76
2021/06/05 06:50:45;;;;;;;1.20;1.10;;;20.40;98.00;;;;;;5072756;28;21030;-77
2021/06/05 06:53:12;;;;;;;1.20;1.10;;;20.50;98.00;;;;;;5069845;28;20456;-76
2021/06/05 06:55:39;;;;;;;1.20;1.10;;;20.60;98.00;;;;;;5072838;28;20914;-76
2021/06/05 06:58:07;;;;;;;1.40;1.20;;;20.60;98.00;;;;;;5069614;28;20463;-77
2021/06/05 07:00:36;;;;;;;1.60;1.23;;;20.60;98.00;;;;;;5070777;28;20947;-77
2021/06/05 07:03:02;;;;;;;1.20;1.03;;;20.70;98.00;;;;;;5070094;28;20513;-77
2021/06/05 07:05:30;;;;;;;1.93;1.33;;;20.70;98.00;;;;;;5073250;28;20835;-77
2021/06/05 07:08:09;;;;;;;1.20;1.10;;;20.80;98.00;;;;;;5070115;28;20464;-75
2021/06/05 07:10:37;;;;;;;1.20;1.00;;;20.90;98.00;;;;;;5073026;28;20488;-76
2021/06/05 07:13:05;;;;;;;1.20;1.10;;;20.90;98.00;;;;;;5069917;28;20499;-77
2021/06/05 07:15:32;;;;;;;1.20;1.00;;;20.90;98.00;;;;;;5072627;28;20462;-77
2021/06/05 07:18:06;;;;;;;1.30;1.10;;;21.00;98.00;;;;;;5069957;28;20461;-78
2021/06/05 07:20:33;;;;;;;1.30;1.10;;;21.10;98.00;;;;;;5071297;28;20532;-76
2021/06/05 07:23:00;;;;;;;2.17;1.30;;;21.10;98.00;;;;;;5069788;28;20457;-77
2021/06/05 07:25:28;;;;;;;1.30;1.07;;;21.20;98.00;;;;;;5072782;28;20467;-76
2021/06/05 07:27:54;;;;;;;1.20;1.20;;;21.30;98.00;;;;;;5067629;28;20456;-77
2021/06/05 07:30:22;;;;;;;1.20;1.10;;;21.30;98.00;;;;;;5071901;28;20527;-76
2021/06/05 07:32:48;;;;;;;1.20;1.10;;;21.20;98.00;;;;;;5069718;28;20456;-75
2021/06/05 07:35:16;;;;;;;1.70;1.20;;;21.20;98.00;;;;;;5071712;28;20956;-74
2021/06/05 07:37:43;;;;;;;1.20;1.10;;;21.30;98.00;;;;;;5068319;28;20491;-76
2021/06/05 07:40:11;;;;;;;1.30;1.10;;;21.50;98.00;;;;;;5072215;28;20965;-75
2021/06/05 07:42:39;;;;;;;1.20;1.17;;;21.50;98.00;;;;;;5068993;28;20464;-76
2021/06/05 07:45:09;;;;;;;1.20;1.10;;;21.60;98.00;;;;;;5072302;28;20461;-77
2021/06/05 07:47:44;;;;;;;1.40;1.20;;;21.50;98.00;;;;;;5069180;28;20461;-77
2021/06/05 07:50:13;;;;;;;1.20;1.10;;;21.60;98.00;;;;;;5072330;28;20542;-77
2021/06/05 07:52:40;;;;;;;2.30;1.20;;;21.60;98.00;;;;;;5068939;28;20461;-78
2021/06/05 07:55:08;;;;;;;1.40;1.20;;;21.60;98.00;;;;;;5072386;28;20865;-78
2021/06/05 07:57:35;;;;;;;1.20;1.00;;;21.70;98.00;;;;;;5069308;28;20846;-77
2021/06/05 08:00:05;;;;;;;1.30;1.20;;;21.80;98.00;;;;;;5072158;28;20544;-76
2021/06/05 08:02:31;;;;;;;1.37;1.30;;;22.00;98.00;;;;;;5069128;28;21012;-77
2021/06/05 08:04:58;;;;;;;1.30;1.10;;;22.20;98.00;;;;;;5071839;28;20488;-76
2021/06/05 08:07:24;;;;;;;1.20;1.10;;;22.20;97.50;;;;;;5067920;28;20497;-77
2021/06/05 08:09:53;;;;;;;1.20;1.10;;;22.20;98.00;;;;;;5071821;28;20464;-78
2021/06/05 08:12:23;;;;;;;1.43;1.20;;;22.10;98.00;;;;;;5070437;28;20481;-80
2021/06/05 08:14:49;;;;;;;1.83;1.40;;;22.20;98.00;;;;;;5070654;28;20493;-77
2021/06/05 08:17:19;;;;;;;1.30;1.10;;;22.30;98.00;;;;;;5071494;28;20453;-78
2021/06/05 08:19:46;;;;;;;1.33;1.27;;;22.40;98.00;;;;;;5071833;28;20456;-77
2021/06/05 08:22:13;;;;;;;1.30;1.30;;;22.40;98.00;;;;;;5071442;28;20465;-77
2021/06/05 08:24:40;;;;;;;1.20;1.10;;;22.50;98.00;;;;;;5068741;28;20496;-78
2021/06/05 08:27:07;;;;;;;1.30;1.10;;;22.50;98.00;;;;;;5071531;28;20845;-77
2021/06/05 08:29:34;;;;;;;1.20;1.10;;;22.60;98.00;;;;;;5069276;28;20457;-76
2021/06/05 08:32:00;;;;;;;2.17;1.40;;;22.40;98.00;;;;;;5070697;28;21083;-77
2021/06/05 08:34:29;;;;;;;1.20;1.10;;;22.30;98.00;;;;;;5068687;28;20471;-77
2021/06/05 08:36:56;;;;;;;1.83;1.20;;;22.20;98.00;;;;;;5071622;28;21066;-76
2021/06/05 08:39:22;;;;;;;1.97;1.20;;;22.20;98.00;;;;;;5069192;28;20880;-77
2021/06/05 08:41:51;;;;;;;1.20;1.10;;;22.20;98.00;;;;;;5071482;28;20826;-76
2021/06/05 08:44:25;;;;;;;1.60;1.30;;;22.30;98.00;;;;;;5068386;28;20488;-77
2021/06/05 08:46:56;;;;;;;1.20;1.10;;;22.20;98.00;;;;;;5071545;28;21039;-77
2021/06/05 08:49:27;;;;;;;1.40;1.20;;;22.20;98.00;;;;;;5069218;28;20480;-76
2021/06/05 08:51:59;;;;;;;1.70;1.30;;;22.10;98.00;;;;;;5071271;28;20525;-77
2021/06/05 08:54:48;;;;;;;1.40;1.20;;;22.00;98.00;;;;;;5068458;28;20461;-78
2021/06/05 08:57:29;;;;;;;1.37;1.20;;;22.00;98.00;;;;;;5070481;28;20457;-76
2021/06/05 09:00:01;;;;;;;1.20;1.10;;;21.90;98.00;;;;;;5070338;28;20468;-77
2021/06/05 09:02:31;;;;;;;1.20;1.10;;;21.90;98.00;;;;;;5067972;28;20453;-77
2021/06/05 09:04:57;;;;;;;1.23;1.17;;;21.90;98.00;;;;;;5070499;28;20488;-75
2021/06/05 09:07:26;;;;;;;1.87;1.13;;;21.90;98.00;;;;;;5069035;28;20590;-74
2021/06/05 09:09:53;;;;;;;1.20;1.10;;;22.10;98.00;;;;;;5070297;28;20480;-76
2021/06/05 09:12:21;;;;;;;1.20;1.10;;;22.20;98.00;;;;;;5070574;28;20503;-77
2021/06/05 09:14:54;;;;;;;1.53;1.20;;;22.20;98.00;;;;;;5067862;28;20457;-76
2021/06/05 09:17:30;;;;;;;1.20;1.20;;;22.20;98.00;;;;;;5070562;28;20481;-78
2021/06/05 09:20:10;;;;;;;1.30;1.20;;;22.10;98.00;;;;;;5071115;28;20460;-77
2021/06/05 09:22:41;;;;;;;1.20;1.07;;;22.00;98.00;;;;;;5068138;28;20472;-78
2021/06/05 09:25:31;;;;;;;1.20;1.20;;;22.00;98.00;;;;;;5074621;28;20456;-77
2021/06/05 09:28:23;;;;;;;1.73;1.40;;;22.00;98.00;;;;;;5072337;28;20459;-76
2021/06/05 09:30:53;;;;;;;1.70;1.20;;;22.00;98.00;;;;;;5074528;28;21067;-77
2021/06/05 09:33:35;;;;;;;1.50;1.40;;;22.00;98.00;;;;;;5071908;28;20471;-76
2021/06/05 09:36:17;;;;;;;1.40;1.20;;;22.10;98.00;;;;;;5074268;28;20452;-77
2021/06/05 09:38:51;;;;;;;1.80;1.70;;;22.00;98.00;;;;;;5071600;28;20456;-76
2021/06/05 09:41:24;;;;;;;1.30;1.10;;;21.90;98.00;;;;;;5073927;28;20461;-76
2021/06/05 09:43:53;;;;;;;1.20;1.20;;;21.80;98.00;;;;;;5072837;28;20506;-76
2021/06/05 09:46:32;;;;;;;1.50;1.33;;;21.90;98.00;;;;;;5074675;28;20456;-78
2021/06/05 09:49:24;;;;;;;1.20;1.10;;;21.90;98.00;;;;;;5071818;28;20934;-76
2021/06/05 09:52:06;;;;;;;1.20;1.20;;;21.90;98.00;;;;;;5074687;28;20496;-76
2021/06/05 09:54:38;;;;;;;1.30;1.10;;;21.90;98.00;;;;;;5072057;28;20531;-76
2021/06/05 09:57:18;;;;;;;1.53;1.30;;;22.00;98.00;;;;;;5073228;28;21010;-77
2021/06/05 09:59:59;;;;;;;1.30;1.10;;;21.90;98.00;;;;;;5072123;28;20809;-77
2021/06/05 10:02:29;;;;;;;1.40;1.30;;;21.90;98.00;;;;;;5074100;28;20480;-79
2021/06/05 10:05:23;;;;;;;1.60;1.40;;;21.80;98.00;;;;;;5073622;28;21205;-77
2021/06/05 10:07:51;;;;;;;2.33;1.20;;;21.70;98.00;;;;;;5071863;28;20563;-77
2021/06/05 10:10:34;;;;;;;1.30;1.20;;;21.70;98.00;;;;;;5074668;28;20492;-77
2021/06/05 10:13:05;;;;;;;1.30;1.20;;;21.90;98.00;;;;;;5071669;28;20817;-78
2021/06/05 10:15:37;;;;;;;1.60;1.50;;;22.00;98.00;;;;;;5074411;28;20456;-76
2021/06/05 10:18:09;;;;;;;1.30;1.23;;;22.00;98.00;;;;;;5071419;28;20465;-76
2021/06/05 10:20:51;;;;;;;1.20;1.10;;;22.10;98.00;;;;;;5073627;28;20919;-76
2021/06/05 10:23:24;;;;;;;1.40;1.20;;;22.20;98.00;;;;;;5070264;28;20457;-78
2021/06/05 10:25:58;;;;;;;1.20;1.20;;;22.20;98.00;;;;;;5074092;28;20518;-78
2021/06/05 10:28:28;;;;;;;1.20;1.13;;;22.30;98.00;;;;;;5070994;28;20463;-78
2021/06/05 10:30:59;;;;;;;1.67;1.30;;;22.40;98.00;;;;;;5073686;28;20480;-77
2021/06/05 10:33:38;;;;;;;1.80;1.37;;;22.30;98.00;;;;;;5072698;28;20452;-77
2021/06/05 10:36:10;;;;;;;1.20;1.10;;;22.40;98.00;;;;;;5074020;28;20857;-77
2021/06/05 10:38:41;;;;;;;1.20;1.10;;;22.40;98.00;;;;;;5073121;28;20541;-76
2021/06/05 10:41:15;;;;;;;1.40;1.20;;;22.30;98.00;;;;;;5075378;28;20548;-78
2021/06/05 10:43:43;;;;;;;1.20;1.20;;;22.20;98.00;;;;;;5073444;28;20813;-76
2021/06/05 10:46:32;;;;;;;1.20;1.10;;;22.20;98.00;;;;;;5076085;28;20453;-77
2021/06/05 10:49:12;;;;;;;1.87;1.30;;;22.30;98.00;;;;;;5060566;28;20453;-77
2021/06/05 10:51:44;;;;;;;2.17;1.40;;;22.40;98.00;;;;;;5076635;28;20579;-76
2021/06/05 10:54:25;;;;;;;1.20;1.10;;;22.50;98.00;;;;;;5073128;28;20487;-78
2021/06/05 10:57:08;;;;;;;1.20;1.20;;;22.40;98.00;;;;;;5076289;28;20540;-79
2021/06/05 10:59:48;;;;;;;1.27;1.17;;;22.40;98.00;;;;;;5075323;28;20457;-77
2021/06/05 11:02:44;;;;;;;1.30;1.20;;;22.40;98.00;;;;;;5078145;28;20464;-77
2021/06/05 11:05:41;;;;;;;1.20;1.10;;;22.30;98.00;;;;;;5077765;28;20464;-77
2021/06/05 11:08:32;;;;;;;1.20;1.00;;;22.30;98.00;;;;;;5074487;28;20448;-77
2021/06/05 11:11:36;;;;;;;1.20;1.03;;;22.40;98.00;;;;;;5076726;28;20534;-77
2021/06/05 11:14:23;;;;;;;1.20;1.20;;;22.50;98.00;;;;;;5075496;28;20509;-76
2021/06/05 11:17:22;;;;;;;1.20;1.20;;;22.50;98.00;;;;;;5065980;28;20448;-76
2021/06/05 11:19:53;;;;;;;1.40;1.20;;;22.70;98.00;;;;;;5075009;28;20461;-78
2021/06/05 11:22:22;;;;;;;3.10;1.33;;;22.80;98.00;;;;;;5077719;28;20544;-77
2021/06/05 11:25:22;;;;;;;1.50;1.10;;;22.90;98.00;;;;;;5076181;28;20461;-77
2021/06/05 11:27:52;;;;;;;1.40;1.20;;;23.20;98.00;;;;;;5071575;28;20482;-77
2021/06/05 11:30:38;;;;;;;1.40;1.13;;;23.60;98.00;;;;;;5074467;28;20459;-77
2021/06/05 11:33:07;;;;;;;1.20;1.10;;;23.80;98.00;;;;;;5071266;28;21079;-76
2021/06/05 11:35:43;;;;;;;1.47;1.40;;;24.10;98.00;;;;;;5073178;28;20491;-77
2021/06/05 11:38:13;;;;;;;1.40;1.20;;;24.40;96.90;;;;;;5069751;28;20456;-76
2021/06/05 11:40:51;;;;;;;1.60;1.37;;;24.50;96.90;;;;;;5072881;28;20449;-78
2021/06/05 11:43:37;;;;;;;5.63;1.50;;;24.50;96.90;;;;;;5070348;28;20456;-77
2021/06/05 11:46:08;;;;;;;1.20;1.10;;;24.50;95.80;;;;;;5073048;28;20522;-79
2021/06/05 11:48:46;;;;;;;1.27;1.23;;;24.30;96.80;;;;;;5074282;28;20484;-77
2021/06/05 11:51:36;;;;;;;1.50;1.30;;;24.20;96.30;;;;;;5077006;28;20539;-78
2021/06/05 11:54:22;;;;;;;1.50;1.20;;;23.90;97.00;;;;;;5088273;28;20598;-76
2021/06/05 11:56:56;;;;;;;1.30;1.30;;;23.70;97.10;;;;;;5075464;28;20448;-77
2021/06/05 11:59:35;;;;;;;1.50;1.40;;;23.60;98.00;;;;;;5074001;28;20966;-78
2021/06/05 12:02:15;;;;;;;2.23;1.33;;;23.30;98.00;;;;;;5075522;28;20509;-78
2021/06/05 12:04:46;;;;;;;1.20;1.10;;;23.20;98.00;;;;;;5073117;28;20453;-78
2021/06/05 12:07:26;;;;;;;1.20;1.10;;;23.40;98.00;;;;;;5075640;28;20449;-78
2021/06/05 12:09:57;;;;;;;1.30;1.20;;;23.50;98.00;;;;;;5072805;28;20867;-77
2021/06/05 12:12:28;;;;;;;1.20;1.10;;;23.30;98.00;;;;;;5074296;28;20487;-78
2021/06/05 12:15:06;;;;;;;1.60;1.40;;;23.40;98.00;;;;;;5072280;28;20824;-77
2021/06/05 12:17:36;;;;;;;1.53;1.20;;;23.40;98.00;;;;;;5073420;28;20460;-76
2021/06/05 12:20:10;;;;;;;1.20;1.20;;;23.40;98.00;;;;;;5072799;28;20457;-76
2021/06/05 12:22:38;;;;;;;1.20;1.10;;;23.40;98.00;;;;;;5073842;28;20468;-76
2021/06/05 12:25:06;;;;;;;1.20;1.10;;;23.50;98.00;;;;;;5071031;28;20456;-78
2021/06/05 12:27:35;;;;;;;1.50;1.30;;;23.40;98.00;;;;;;5072397;28;20441;-73
2021/06/05 12:30:13;;;;;;;1.80;1.20;;;23.50;97.20;;;;;;5069825;28;20508;-78
2021/06/05 12:32:53;;;;;;;1.30;1.30;;;23.70;97.80;;;;;;5073395;28;21108;-76
2021/06/05 12:35:22;;;;;;;1.40;1.27;;;23.70;97.20;;;;;;5073611;28;20461;-77
2021/06/05 12:37:51;;;;;;;1.20;1.10;;;23.60;97.20;;;;;;5069693;28;20965;-77
2021/06/05 12:40:24;;;;;;;2.13;1.50;;;23.60;97.00;;;;;;5073359;28;20526;-75
2021/06/05 12:42:51;;;;;;;1.37;1.30;;;23.60;97.30;;;;;;5071436;28;20484;-77
2021/06/05 12:45:23;;;;;;;1.50;1.20;;;23.60;96.50;;;;;;5073269;28;20460;-76
2021/06/05 12:47:55;;;;;;;1.20;1.20;;;23.60;96.20;;;;;;5071540;28;20449;-76
2021/06/05 12:50:25;;;;;;;1.20;1.10;;;23.40;97.10;;;;;;5074234;28;20962;-77
2021/06/05 12:53:04;;;;;;;1.20;1.10;;;23.40;97.10;;;;;;5069586;28;20453;-76
2021/06/05 12:55:36;;;;;;;1.20;1.13;;;23.50;96.80;;;;;;5071461;28;20468;-78
2021/06/05 12:58:11;;;;;;;1.20;1.10;;;23.70;97.30;;;;;;5067779;28;20499;-77
2021/06/05 13:00:48;;;;;;;1.50;1.30;;;23.60;96.90;;;;;;5071506;28;20460;-76
2021/06/05 13:03:42;;;;;;;1.20;1.03;;;23.50;95.00;;;;;;5068405;28;20456;-77
2021/06/05 13:06:22;;;;;;;1.20;1.20;;;23.40;95.40;;;;;;5068621;28;20469;-77
2021/06/05 13:08:52;;;;;;;1.20;1.10;;;23.40;94.40;;;;;;5068264;28;20530;-77